createdAt,value
2018-04-25T00:00:12.531Z,92.2
2018-04-25T00:01:14.141Z,92.0
2018-04-25T00:02:15.758Z,92.0
2018-04-25T00:03:17.371Z,92.0
2018-04-25T00:04:18.991Z,92.3
2018-04-25T00:05:20.600Z,92.1
2018-04-25T00:06:22.216Z,92.0
2018-04-25T00:07:23.823Z,91.8
2018-04-25T00:08:25.437Z,92.3
2018-04-25T00:09:27.048Z,91.7
2018-04-25T00:10:28.667Z,91.7
2018-04-25T00:11:30.278Z,91.6
2018-04-25T00:12:31.892Z,91.8
2018-04-25T00:13:33.506Z,91.5
2018-04-25T00:14:35.117Z,91.5
2018-04-25T00:15:36.734Z,91.3
2018-04-25T00:16:38.342Z,91.5
2018-04-25T00:17:39.955Z,91.0
2018-04-25T00:18:41.573Z,91.1
2018-04-25T00:19:43.184Z,91.1
2018-04-25T00:20:44.796Z,91.2
2018-04-25T00:21:46.408Z,91.4
2018-04-25T00:22:48.027Z,91.4
2018-04-25T00:23:49.643Z,91.0
2018-04-25T00:24:51.261Z,91.4
2018-04-25T00:25:52.879Z,91.7
2018-04-25T00:26:54.489Z,91.4
2018-04-25T00:27:56.108Z,90.9
2018-04-25T00:28:57.717Z,91.0
2018-04-25T00:29:59.329Z,90.5
2018-04-25T00:31:00.947Z,90.6
2018-04-25T00:32:02.562Z,91.1
2018-04-25T00:33:04.179Z,90.6
2018-04-25T00:34:05.789Z,89.9
2018-04-25T00:35:07.402Z,90.1
2018-04-25T00:36:09.018Z,89.6
2018-04-25T00:37:10.629Z,89.5
2018-04-25T00:38:12.244Z,89.6
2018-04-25T00:39:13.861Z,89.4
2018-04-25T00:40:15.481Z,88.6
2018-04-25T00:41:17.093Z,88.7
2018-04-25T00:42:18.708Z,88.8
2018-04-25T00:43:20.324Z,88.9
2018-04-25T00:44:22.012Z,88.7
2018-04-25T00:45:23.550Z,88.9
2018-04-25T00:46:25.161Z,88.6
2018-04-25T00:47:26.781Z,88.6
2018-04-25T00:48:28.390Z,87.8
2018-04-25T00:49:30.008Z,87.6
2018-04-25T00:50:31.623Z,87.1
2018-04-25T00:51:33.234Z,87.1
2018-04-25T00:52:34.852Z,87.2
2018-04-25T00:53:36.462Z,87.3
2018-04-25T00:54:38.079Z,87.4
2018-04-25T00:55:39.695Z,87.4
2018-04-25T00:56:41.309Z,87.3
2018-04-25T00:57:42.924Z,86.9
2018-04-25T00:58:44.538Z,87.0
2018-04-25T00:59:46.150Z,87.2
2018-04-25T01:00:47.770Z,86.6
2018-04-25T01:01:49.385Z,86.9
2018-04-25T01:02:50.999Z,86.2
2018-04-25T01:03:52.616Z,86.2
2018-04-25T01:04:54.233Z,86.4
2018-04-25T01:05:55.841Z,86.3
2018-04-25T01:06:57.455Z,85.9
2018-04-25T01:07:59.071Z,85.8
2018-04-25T01:09:00.685Z,85.9
2018-04-25T01:10:02.298Z,85.8
2018-04-25T01:11:03.912Z,85.4
2018-04-25T01:12:05.524Z,85.5
2018-04-25T01:13:07.143Z,85.8
2018-04-25T01:14:08.760Z,85.4
2018-04-25T01:15:10.375Z,85.1
2018-04-25T01:16:11.986Z,85.0
2018-04-25T01:17:13.595Z,84.7
2018-04-25T01:18:15.211Z,84.8
2018-04-25T01:19:16.823Z,85.1
2018-04-25T01:20:18.434Z,84.7
2018-04-25T01:21:20.048Z,85.0
2018-04-25T01:22:21.665Z,84.7
2018-04-25T01:23:23.278Z,84.3
2018-04-25T01:24:24.896Z,84.5
2018-04-25T01:25:26.511Z,84.3
2018-04-25T01:26:28.121Z,85.1
2018-04-25T01:27:29.740Z,84.3
2018-04-25T01:28:31.350Z,85.2
2018-04-25T01:29:32.965Z,84.6
2018-04-25T01:30:34.576Z,84.4
2018-04-25T01:31:36.191Z,84.8
2018-04-25T01:32:37.801Z,84.2
2018-04-25T01:33:39.413Z,84.8
2018-04-25T01:34:41.034Z,84.8
2018-04-25T01:35:42.645Z,84.3
2018-04-25T01:36:44.263Z,83.9
2018-04-25T01:37:45.883Z,84.4
2018-04-25T01:38:47.488Z,83.6
2018-04-25T01:39:49.111Z,84.0
2018-04-25T01:40:50.714Z,83.4
2018-04-25T01:41:52.325Z,83.6
2018-04-25T01:42:53.943Z,84.1
2018-04-25T01:43:55.554Z,84.4
2018-04-25T01:44:57.171Z,84.2
2018-04-25T01:45:58.781Z,84.9
2018-04-25T01:47:00.397Z,84.4
2018-04-25T01:48:02.005Z,84.4
2018-04-25T01:49:03.621Z,84.2
2018-04-25T01:50:05.233Z,84.2
2018-04-25T01:51:06.851Z,84.5
2018-04-25T01:52:08.468Z,84.7
2018-04-25T01:53:10.079Z,84.2
2018-04-25T01:54:11.689Z,84.0
2018-04-25T01:55:13.306Z,84.6
2018-04-25T01:56:14.916Z,84.5
2018-04-25T01:57:16.533Z,84.2
2018-04-25T01:58:18.149Z,84.7
2018-04-25T01:59:19.762Z,84.4
2018-04-25T02:00:21.370Z,84.1
2018-04-25T02:01:22.987Z,84.1
2018-04-25T02:02:24.594Z,84.2
2018-04-25T02:03:26.211Z,84.3
2018-04-25T02:04:27.825Z,84.0
2018-04-25T02:05:29.437Z,83.9
2018-04-25T02:06:31.059Z,84.1
2018-04-25T02:07:32.673Z,83.8
2018-04-25T02:08:34.282Z,83.4
2018-04-25T02:09:35.893Z,83.7
2018-04-25T02:10:37.592Z,83.9
2018-04-25T02:11:39.121Z,83.9
2018-04-25T02:12:40.734Z,83.7
2018-04-25T02:13:42.350Z,84.0
2018-04-25T02:14:43.962Z,83.9
2018-04-25T02:15:45.571Z,84.5
2018-04-25T02:16:47.182Z,84.3
2018-04-25T02:17:48.800Z,84.3
2018-04-25T02:18:50.417Z,84.6
2018-04-25T02:19:52.027Z,84.0
2018-04-25T02:20:53.642Z,84.4
2018-04-25T02:21:55.261Z,84.1
2018-04-25T02:22:56.866Z,84.6
2018-04-25T02:23:58.483Z,84.9
2018-04-25T02:25:00.099Z,84.6
2018-04-25T02:26:01.711Z,84.6
2018-04-25T02:27:03.325Z,84.5
2018-04-25T02:28:04.942Z,84.3
2018-04-25T02:29:06.547Z,84.1
2018-04-25T02:30:08.169Z,84.6
2018-04-25T02:31:09.783Z,84.4
2018-04-25T02:32:11.394Z,84.4
2018-04-25T02:33:13.011Z,84.5
2018-04-25T02:34:14.621Z,84.7
2018-04-25T02:35:16.238Z,85.0
2018-04-25T02:36:17.852Z,85.0
2018-04-25T02:37:19.461Z,85.1
2018-04-25T02:38:21.079Z,84.9
2018-04-25T02:39:22.696Z,84.4
2018-04-25T02:40:24.305Z,84.9
2018-04-25T02:41:25.922Z,85.3
2018-04-25T02:42:27.536Z,85.0
2018-04-25T02:43:29.154Z,85.3
2018-04-25T02:44:30.765Z,85.5
2018-04-25T02:45:32.383Z,85.3
2018-04-25T02:46:33.996Z,85.8
2018-04-25T02:47:35.603Z,85.7
2018-04-25T02:48:37.230Z,85.9
2018-04-25T02:49:38.840Z,86.3
2018-04-25T02:50:40.447Z,86.4
2018-04-25T02:51:42.059Z,86.1
2018-04-25T02:52:43.673Z,86.2
2018-04-25T02:53:45.288Z,86.2
2018-04-25T02:54:46.895Z,86.3
2018-04-25T02:55:48.508Z,86.2
2018-04-25T02:56:50.120Z,86.3
2018-04-25T02:57:51.732Z,86.5
2018-04-25T02:58:53.396Z,86.2
2018-04-25T02:59:54.956Z,86.7
2018-04-25T03:00:56.568Z,86.7
2018-04-25T03:01:58.196Z,86.6
2018-04-25T03:02:59.810Z,86.2
2018-04-25T03:04:01.431Z,87.3
2018-04-25T03:05:03.036Z,87.1
2018-04-25T03:06:04.652Z,86.8
2018-04-25T03:07:06.260Z,86.8
2018-04-25T03:08:07.884Z,87.0
2018-04-25T03:09:09.503Z,87.3
2018-04-25T03:10:11.117Z,87.0
2018-04-25T03:11:12.729Z,87.3
2018-04-25T03:12:14.339Z,87.0
2018-04-25T03:13:15.956Z,87.5
2018-04-25T03:14:17.564Z,87.5
2018-04-25T03:15:19.175Z,87.8
2018-04-25T03:16:20.786Z,87.8
2018-04-25T03:17:22.405Z,87.4
2018-04-25T03:18:24.021Z,87.8
2018-04-25T03:19:25.627Z,87.9
2018-04-25T03:20:27.237Z,87.8
2018-04-25T03:21:28.853Z,88.6
2018-04-25T03:22:30.542Z,88.3
2018-04-25T03:23:32.079Z,88.2
2018-04-25T03:24:33.696Z,88.6
2018-04-25T03:25:35.309Z,88.3
2018-04-25T03:26:36.922Z,88.5
2018-04-25T03:27:38.533Z,88.6
2018-04-25T03:28:40.144Z,88.9
2018-04-25T03:29:41.756Z,88.9
2018-04-25T03:30:43.376Z,88.9
2018-04-25T03:31:44.997Z,88.5
2018-04-25T03:32:46.604Z,89.2
2018-04-25T03:33:48.214Z,88.9
2018-04-25T03:34:49.827Z,89.1
2018-04-25T03:35:51.436Z,89.0
2018-04-25T03:36:53.054Z,88.6
2018-04-25T03:37:54.662Z,89.3
2018-04-25T03:38:56.276Z,90.0
2018-04-25T03:39:57.893Z,89.0
2018-04-25T03:40:59.549Z,89.4
2018-04-25T03:42:01.118Z,89.3
2018-04-25T03:43:02.748Z,89.8
2018-04-25T03:44:04.359Z,89.4
2018-04-25T03:45:05.973Z,89.5
2018-04-25T03:46:07.589Z,90.0
2018-04-25T03:47:09.206Z,90.1
2018-04-25T03:48:10.812Z,90.1
2018-04-25T03:49:12.437Z,90.1
2018-04-25T03:50:14.039Z,90.0
2018-04-25T03:51:15.658Z,90.1
2018-04-25T03:52:17.267Z,90.1
2018-04-25T03:53:18.880Z,89.8
2018-04-25T03:54:20.502Z,90.0
2018-04-25T03:55:22.105Z,90.1
2018-04-25T03:56:23.722Z,90.2
2018-04-25T03:57:25.336Z,90.3
2018-04-25T03:58:26.944Z,90.7
2018-04-25T03:59:28.563Z,90.5
2018-04-25T04:00:30.201Z,90.4
2018-04-25T04:01:31.819Z,90.7
2018-04-25T04:02:33.434Z,90.6
2018-04-25T04:03:35.042Z,90.5
2018-04-25T04:04:36.654Z,90.7
2018-04-25T04:05:38.269Z,90.5
2018-04-25T04:06:39.886Z,90.3
2018-04-25T04:07:41.502Z,90.4
2018-04-25T04:08:43.110Z,90.6
2018-04-25T04:09:44.727Z,90.2
2018-04-25T04:10:46.337Z,90.3
2018-04-25T04:11:47.958Z,90.2
2018-04-25T04:12:49.567Z,90.6
2018-04-25T04:13:51.178Z,91.0
2018-04-25T04:14:52.797Z,91.0
2018-04-25T04:15:54.406Z,90.6
2018-04-25T04:16:56.023Z,91.1
2018-04-25T04:17:57.634Z,90.8
2018-04-25T04:18:59.249Z,91.5
2018-04-25T04:20:00.866Z,91.2
2018-04-25T04:21:02.491Z,91.1
2018-04-25T04:22:04.099Z,91.0
2018-04-25T04:23:05.716Z,91.3
2018-04-25T04:24:07.329Z,90.9
2018-04-25T04:25:08.942Z,90.9
2018-04-25T04:26:10.553Z,91.6
2018-04-25T04:27:12.173Z,91.5
2018-04-25T04:28:13.792Z,91.7
2018-04-25T04:29:15.404Z,91.4
2018-04-25T04:30:17.029Z,91.7
2018-04-25T04:31:18.638Z,90.6
2018-04-25T04:32:20.256Z,91.3
2018-04-25T04:33:21.886Z,91.6
2018-04-25T04:34:23.496Z,91.6
2018-04-25T04:35:25.113Z,91.4
2018-04-25T04:36:26.738Z,91.8
2018-04-25T04:37:28.355Z,92.0
2018-04-25T04:38:29.965Z,92.0
2018-04-25T04:39:31.584Z,92.4
2018-04-25T04:40:33.204Z,92.2
2018-04-25T04:41:34.817Z,92.0
2018-04-25T04:42:36.437Z,92.2
2018-04-25T04:43:38.050Z,92.5
2018-04-25T04:44:39.669Z,92.3
2018-04-25T04:45:41.290Z,92.6
2018-04-25T04:46:42.906Z,92.6
2018-04-25T04:47:44.518Z,92.7
2018-04-25T04:48:46.136Z,93.3
2018-04-25T04:49:47.753Z,93.1
2018-04-25T04:50:49.369Z,93.7
2018-04-25T04:51:50.989Z,93.4
2018-04-25T04:52:52.600Z,93.6
2018-04-25T04:53:54.220Z,93.8
2018-04-25T04:54:55.836Z,93.5
2018-04-25T04:55:57.452Z,93.5
2018-04-25T04:56:59.073Z,93.8
2018-04-25T04:58:00.687Z,93.0
2018-04-25T04:59:02.302Z,93.1
2018-04-25T05:00:03.924Z,93.6
2018-04-25T05:01:05.536Z,92.7
2018-04-25T05:02:07.159Z,92.8
2018-04-25T05:03:08.783Z,93.2
2018-04-25T05:04:10.398Z,92.9
2018-04-25T05:05:12.017Z,92.5
2018-04-25T05:06:13.645Z,93.2
2018-04-25T05:07:15.328Z,92.7
2018-04-25T05:08:16.875Z,92.4
2018-04-25T05:09:18.504Z,92.3
2018-04-25T05:10:20.109Z,92.1
2018-04-25T05:11:21.724Z,91.4
2018-04-25T05:12:23.368Z,91.8
2018-04-25T05:13:24.979Z,91.0
2018-04-25T05:14:26.599Z,91.7
2018-04-25T05:15:28.216Z,90.9
2018-04-25T05:16:29.831Z,90.4
2018-04-25T05:17:31.455Z,90.0
2018-04-25T05:18:33.071Z,89.7
2018-04-25T05:19:34.692Z,89.9
2018-04-25T05:20:36.317Z,89.5
2018-04-25T05:21:37.949Z,89.8
2018-04-25T05:22:39.571Z,90.0
2018-04-25T05:23:41.187Z,90.3
2018-04-25T05:24:42.883Z,89.5
2018-04-25T05:25:44.427Z,89.7
2018-04-25T05:26:46.045Z,89.6
2018-04-25T05:27:47.669Z,89.5
2018-04-25T05:28:49.282Z,89.3
2018-04-25T05:29:50.905Z,89.9
2018-04-25T05:30:52.522Z,89.9
2018-04-25T05:31:54.230Z,89.7
2018-04-25T05:32:55.765Z,89.9
2018-04-25T05:33:57.385Z,91.7
2018-04-25T05:34:59.009Z,92.8
2018-04-25T05:36:00.624Z,92.4
2018-04-25T05:37:02.248Z,93.6
2018-04-25T05:38:03.860Z,94.3
2018-04-25T05:39:05.491Z,93.6
2018-04-25T05:40:07.107Z,94.0
2018-04-25T05:41:08.729Z,95.0
2018-04-25T05:42:10.354Z,95.2
2018-04-25T05:43:11.966Z,95.8
2018-04-25T05:44:13.583Z,96.2
2018-04-25T05:45:15.204Z,97.0
2018-04-25T05:46:16.818Z,97.0
2018-04-25T05:47:18.443Z,97.7
2018-04-25T05:48:20.060Z,97.8
2018-04-25T05:49:21.690Z,97.9
2018-04-25T05:50:23.295Z,97.8
2018-04-25T05:51:24.918Z,98.8
2018-04-25T05:52:26.537Z,100.0
2018-04-25T05:53:28.158Z,100.0
2018-04-25T05:54:29.780Z,100.0
2018-04-25T05:55:31.396Z,100.0
2018-04-25T05:56:33.019Z,100.0
2018-04-25T05:57:34.644Z,100.0
2018-04-25T05:58:36.260Z,100.0
2018-04-25T05:59:37.883Z,100.0
2018-04-25T06:00:39.503Z,100.0
2018-04-25T06:01:41.119Z,100.0
2018-04-25T06:02:42.741Z,100.0
2018-04-25T06:03:44.363Z,100.0
2018-04-25T06:04:46.006Z,100.0
2018-04-25T06:05:47.621Z,100.0
2018-04-25T06:06:49.236Z,100.0
2018-04-25T06:07:50.863Z,100.0
2018-04-25T06:08:52.480Z,100.0
2018-04-25T06:09:54.100Z,100.0
2018-04-25T06:10:55.722Z,100.0
2018-04-25T06:11:57.338Z,100.0
2018-04-25T06:12:58.960Z,100.0
2018-04-25T06:14:00.575Z,100.0
2018-04-25T06:15:02.196Z,100.0
2018-04-25T06:16:03.818Z,100.0
2018-04-25T06:17:05.437Z,100.0
2018-04-25T06:18:07.067Z,100.0
2018-04-25T06:19:08.679Z,100.0
2018-04-25T06:20:10.301Z,100.0
2018-04-25T06:21:11.918Z,100.0
2018-04-25T06:22:13.535Z,100.0
2018-04-25T06:23:15.159Z,100.0
2018-04-25T06:24:16.774Z,100.0
2018-04-25T06:25:18.406Z,100.0
2018-04-25T06:26:20.014Z,100.0
2018-04-25T06:27:21.641Z,100.0
2018-04-25T06:28:23.255Z,100.0
2018-04-25T06:29:24.869Z,100.0
2018-04-25T06:30:26.501Z,100.0
2018-04-25T06:31:28.116Z,100.0
2018-04-25T06:32:29.741Z,100.0
2018-04-25T06:33:31.363Z,100.0
2018-04-25T06:34:32.975Z,100.0
2018-04-25T06:35:34.598Z,100.0
2018-04-25T06:36:36.214Z,100.0
2018-04-25T06:37:37.833Z,100.0
2018-04-25T06:38:39.460Z,100.0
2018-04-25T06:39:41.079Z,100.0
2018-04-25T06:40:42.699Z,100.0
2018-04-25T06:41:44.316Z,100.0
2018-04-25T06:42:45.941Z,100.0
2018-04-25T06:43:47.555Z,100.0
2018-04-25T06:44:49.255Z,100.0
2018-04-25T06:45:50.801Z,100.0
2018-04-25T06:46:52.423Z,100.0
2018-04-25T06:47:54.044Z,100.0
2018-04-25T06:48:55.656Z,100.0
2018-04-25T06:49:57.276Z,100.0
2018-04-25T06:50:58.897Z,100.0
2018-04-25T06:52:00.515Z,100.0
2018-04-25T06:53:02.137Z,100.0
2018-04-25T06:54:03.754Z,100.0
2018-04-25T06:55:05.374Z,100.0
2018-04-25T06:56:06.985Z,100.0
2018-04-25T06:57:08.608Z,100.0
2018-04-25T06:58:10.228Z,100.0
2018-04-25T06:59:11.845Z,100.0
2018-04-25T07:00:13.465Z,100.0
2018-04-25T07:01:15.088Z,100.0
2018-04-25T07:02:16.700Z,100.0
2018-04-25T07:03:18.318Z,100.0
2018-04-25T07:04:19.938Z,100.0
2018-04-25T07:05:21.554Z,100.0
2018-04-25T07:06:23.176Z,100.0
2018-04-25T07:07:24.792Z,100.0
2018-04-25T07:08:26.415Z,100.0
2018-04-25T07:09:28.037Z,100.0
2018-04-25T07:10:29.653Z,100.0
2018-04-25T07:11:31.267Z,100.0
2018-04-25T07:12:32.885Z,100.0
2018-04-25T07:13:34.507Z,100.0
2018-04-25T07:14:36.128Z,100.0
2018-04-25T07:15:37.743Z,100.0
2018-04-25T07:16:39.370Z,100.0
2018-04-25T07:17:40.974Z,100.0
2018-04-25T07:18:42.591Z,100.0
2018-04-25T07:19:44.208Z,100.0
2018-04-25T07:20:45.832Z,100.0
2018-04-25T07:21:47.447Z,100.0
2018-04-25T07:22:49.069Z,100.0
2018-04-25T07:23:50.732Z,100.0
2018-04-25T07:24:52.307Z,100.0
2018-04-25T07:25:53.923Z,100.0
2018-04-25T07:26:55.543Z,100.0
2018-04-25T07:27:57.168Z,100.0
2018-04-25T07:28:58.779Z,100.0
2018-04-25T07:30:00.404Z,100.0
2018-04-25T07:31:02.025Z,100.0
2018-04-25T07:32:03.641Z,100.0
2018-04-25T07:33:05.256Z,100.0
2018-04-25T07:34:06.880Z,100.0
2018-04-25T07:35:08.520Z,100.0
2018-04-25T07:36:10.117Z,100.0
2018-04-25T07:37:11.736Z,100.0
2018-04-25T07:38:13.355Z,100.0
2018-04-25T07:39:14.980Z,100.0
2018-04-25T07:40:16.596Z,100.0
2018-04-25T07:41:18.219Z,100.0
2018-04-25T07:42:19.837Z,100.0
2018-04-25T07:43:21.454Z,100.0
2018-04-25T07:44:23.078Z,100.0
2018-04-25T07:45:24.697Z,100.0
2018-04-25T07:46:26.320Z,100.0
2018-04-25T07:47:27.941Z,100.0
2018-04-25T07:48:29.560Z,100.0
2018-04-25T07:49:31.183Z,100.0
2018-04-25T07:50:32.805Z,100.0
2018-04-25T07:51:34.437Z,100.0
2018-04-25T07:52:36.059Z,100.0
2018-04-25T07:53:37.676Z,100.0
2018-04-25T07:54:39.300Z,99.9
2018-04-25T07:55:40.923Z,99.6
2018-04-25T07:56:42.542Z,100.0
2018-04-25T07:57:44.267Z,100.0
2018-04-25T07:58:45.802Z,100.0
2018-04-25T07:59:47.411Z,99.5
2018-04-25T08:00:49.033Z,99.6
2018-04-25T08:01:50.658Z,99.1
2018-04-25T08:02:52.275Z,99.5
2018-04-25T08:03:53.919Z,100.0
2018-04-25T08:04:55.546Z,99.8
2018-04-25T08:05:57.189Z,99.5
2018-04-25T08:06:58.795Z,99.2
2018-04-25T08:08:00.416Z,98.8
2018-04-25T08:09:02.058Z,99.0
2018-04-25T08:10:03.683Z,99.4
2018-04-25T08:11:05.316Z,98.1
2018-04-25T08:12:06.927Z,95.6
2018-04-25T08:13:08.556Z,93.1
2018-04-25T08:14:10.177Z,90.1
2018-04-25T08:15:11.797Z,89.6
2018-04-25T08:16:13.418Z,89.6
2018-04-25T08:17:15.045Z,89.9
2018-04-25T08:18:16.672Z,90.9
2018-04-25T08:19:18.293Z,91.6
2018-04-25T08:20:19.921Z,91.2
2018-04-25T08:21:21.540Z,91.8
2018-04-25T08:22:23.164Z,92.7
2018-04-25T08:23:24.785Z,88.9
2018-04-25T08:24:26.411Z,83.2
2018-04-25T08:25:28.034Z,83.1
2018-04-25T08:26:29.667Z,78.2
2018-04-25T08:27:31.287Z,79.7
2018-04-25T08:28:32.911Z,78.7
2018-04-25T08:29:34.540Z,74.3
2018-04-25T08:30:36.167Z,73.7
2018-04-25T08:31:37.788Z,70.6
2018-04-25T08:32:39.417Z,72.2
2018-04-25T08:33:41.041Z,73.2
2018-04-25T08:34:42.668Z,73.8
2018-04-25T08:35:44.296Z,73.8
2018-04-25T08:36:45.920Z,75.8
2018-04-25T08:37:47.543Z,77.6
2018-04-25T08:38:49.174Z,78.6
2018-04-25T08:39:50.794Z,79.2
2018-04-25T08:40:52.419Z,80.3
2018-04-25T08:41:54.053Z,81.9
2018-04-25T08:42:55.675Z,83.7
2018-04-25T08:43:57.300Z,84.7
2018-04-25T08:44:59.014Z,86.6
2018-04-25T08:46:00.546Z,85.9
2018-04-25T08:47:02.171Z,87.5
2018-04-25T08:48:03.795Z,88.6
2018-04-25T08:49:05.418Z,90.3
2018-04-25T08:50:07.045Z,91.4
2018-04-25T08:51:08.666Z,92.8
2018-04-25T08:52:10.368Z,94.0
2018-04-25T08:53:11.908Z,95.8
2018-04-25T08:54:13.536Z,97.7
2018-04-25T08:55:15.157Z,100.0
2018-04-25T08:56:16.782Z,100.0
2018-04-25T08:57:18.407Z,100.0
2018-04-25T08:58:20.022Z,100.0
2018-04-25T08:59:21.727Z,100.0
2018-04-25T09:00:23.268Z,100.0
2018-04-25T09:01:24.898Z,100.0
2018-04-25T09:02:26.512Z,100.0
2018-04-25T09:03:28.140Z,100.0
2018-04-25T09:04:29.758Z,100.0
2018-04-25T09:05:31.379Z,100.0
2018-04-25T09:06:32.996Z,100.0
2018-04-25T09:07:34.621Z,100.0
2018-04-25T09:08:36.242Z,100.0
2018-04-25T09:09:37.869Z,100.0
2018-04-25T09:10:39.487Z,100.0
2018-04-25T09:11:41.108Z,100.0
2018-04-25T09:12:42.725Z,100.0
2018-04-25T09:13:44.345Z,100.0
2018-04-25T09:14:45.970Z,100.0
2018-04-25T09:15:47.587Z,100.0
2018-04-25T09:16:49.218Z,100.0
2018-04-25T09:17:50.835Z,100.0
2018-04-25T09:18:52.464Z,100.0
2018-04-25T09:19:54.085Z,100.0
2018-04-25T09:20:55.708Z,100.0
2018-04-25T09:21:57.328Z,100.0
2018-04-25T09:22:58.955Z,100.0
2018-04-25T09:24:00.582Z,100.0
2018-04-25T09:25:02.204Z,100.0
2018-04-25T09:26:03.825Z,100.0
2018-04-25T09:27:05.449Z,100.0
2018-04-25T09:28:07.071Z,100.0
2018-04-25T09:29:08.698Z,100.0
2018-04-25T09:30:10.320Z,100.0
2018-04-25T09:31:11.945Z,100.0
2018-04-25T09:32:13.568Z,100.0
2018-04-25T09:33:15.192Z,100.0
2018-04-25T09:34:16.811Z,100.0
2018-04-25T09:35:18.437Z,100.0
2018-04-25T09:36:20.062Z,100.0
2018-04-25T09:37:21.686Z,99.5
2018-04-25T09:38:23.309Z,99.4
2018-04-25T09:39:24.957Z,98.8
2018-04-25T09:40:26.565Z,97.9
2018-04-25T09:41:28.190Z,96.7
2018-04-25T09:42:29.815Z,94.4
2018-04-25T09:43:31.436Z,93.4
2018-04-25T09:44:33.061Z,92.8
2018-04-25T09:45:34.694Z,89.6
2018-04-25T09:46:36.321Z,91.0
2018-04-25T09:47:37.941Z,89.5
2018-04-25T09:48:39.564Z,90.5
2018-04-25T09:49:41.197Z,92.2
2018-04-25T09:50:42.831Z,92.3
2018-04-25T09:51:44.515Z,93.0
2018-04-25T09:52:46.073Z,93.3
2018-04-25T09:53:47.698Z,92.2
2018-04-25T09:54:49.322Z,90.5
2018-04-25T09:55:50.945Z,89.4
2018-04-25T09:56:52.574Z,89.4
2018-04-25T09:57:54.230Z,89.9
2018-04-25T09:58:55.828Z,89.9
2018-04-25T09:59:57.455Z,89.8
2018-04-25T10:00:59.080Z,90.0
2018-04-25T10:02:00.709Z,88.9
2018-04-25T10:03:02.353Z,88.7
2018-04-25T10:04:04.043Z,87.5
2018-04-25T10:05:05.615Z,87.3
2018-04-25T10:06:07.231Z,86.1
2018-04-25T10:07:08.856Z,87.3
2018-04-25T10:08:10.488Z,87.8
2018-04-25T10:09:12.108Z,85.2
2018-04-25T10:10:13.737Z,83.6
2018-04-25T10:11:15.369Z,84.2
2018-04-25T10:12:16.997Z,84.7
2018-04-25T10:13:18.624Z,84.4
2018-04-25T10:14:20.251Z,82.8
2018-04-25T10:15:21.936Z,81.8
2018-04-25T10:16:23.511Z,78.9
2018-04-25T10:17:25.175Z,79.1
2018-04-25T10:18:26.764Z,78.5
2018-04-25T10:19:28.395Z,80.3
2018-04-25T10:20:30.026Z,78.3
2018-04-25T10:21:31.657Z,77.8
2018-04-25T10:22:33.294Z,75.8
2018-04-25T10:23:34.918Z,78.2
2018-04-25T10:24:36.546Z,78.5
2018-04-25T10:25:38.235Z,75.7
2018-04-25T10:26:39.808Z,76.6
2018-04-25T10:27:41.429Z,78.0
2018-04-25T10:28:43.064Z,77.8
2018-04-25T10:29:44.687Z,78.5
2018-04-25T10:30:46.317Z,78.6
2018-04-25T10:31:47.944Z,78.5
2018-04-25T10:32:49.612Z,78.9
2018-04-25T10:33:51.236Z,78.6
2018-04-25T10:34:52.865Z,79.3
2018-04-25T10:35:54.488Z,80.6
2018-04-25T10:36:56.119Z,79.7
2018-04-25T10:37:57.742Z,79.7
2018-04-25T10:38:59.377Z,78.4
2018-04-25T10:40:00.995Z,78.6
2018-04-25T10:41:02.625Z,79.7
2018-04-25T10:42:04.246Z,79.1
2018-04-25T10:43:05.879Z,76.9
2018-04-25T10:44:07.516Z,78.4
2018-04-25T10:45:09.131Z,77.3
2018-04-25T10:46:10.758Z,77.8
2018-04-25T10:47:12.386Z,76.8
2018-04-25T10:48:14.012Z,75.9
2018-04-25T10:49:15.636Z,76.8
2018-04-25T10:50:17.273Z,76.5
2018-04-25T10:51:18.892Z,75.8
2018-04-25T10:52:20.520Z,77.9
2018-04-25T10:53:22.140Z,78.1
2018-04-25T10:54:23.763Z,77.8
2018-04-25T10:55:25.413Z,77.7
2018-04-25T10:56:27.013Z,76.8
2018-04-25T10:57:28.643Z,76.5
2018-04-25T10:58:30.272Z,75.2
2018-04-25T10:59:31.892Z,76.8
2018-04-25T11:00:33.514Z,77.3
2018-04-25T11:01:35.142Z,76.1
2018-04-25T11:02:36.763Z,77.1
2018-04-25T11:03:38.394Z,75.5
2018-04-25T11:04:40.038Z,76.0
2018-04-25T11:05:41.645Z,75.8
2018-04-25T11:06:43.271Z,75.3
2018-04-25T11:07:44.899Z,75.4
2018-04-25T11:08:46.525Z,74.4
2018-04-25T11:09:48.148Z,75.9
2018-04-25T11:10:49.779Z,73.6
2018-04-25T11:11:51.404Z,72.3
2018-04-25T11:12:53.028Z,71.5
2018-04-25T11:13:54.651Z,71.6
2018-04-25T11:14:56.273Z,71.3
2018-04-25T11:15:57.910Z,72.0
2018-04-25T11:16:59.532Z,72.3
2018-04-25T11:18:01.166Z,71.1
2018-04-25T11:19:02.791Z,70.8
2018-04-25T11:20:04.415Z,70.0
2018-04-25T11:21:06.047Z,68.9
2018-04-25T11:22:07.671Z,69.6
2018-04-25T11:23:09.301Z,70.2
2018-04-25T11:24:10.926Z,69.1
2018-04-25T11:25:12.555Z,68.3
2018-04-25T11:26:14.187Z,66.8
2018-04-25T11:27:15.813Z,66.2
2018-04-25T11:28:17.442Z,65.9
2018-04-25T11:29:19.067Z,66.0
2018-04-25T11:30:20.704Z,66.9
2018-04-25T11:31:22.330Z,65.3
2018-04-25T11:32:23.964Z,61.7
2018-04-25T11:33:25.593Z,61.3
2018-04-25T11:34:27.224Z,59.8
2018-04-25T11:35:28.856Z,59.1
2018-04-25T11:36:30.484Z,60.3
2018-04-25T11:37:32.119Z,58.7
2018-04-25T11:38:33.751Z,59.1
2018-04-25T11:39:35.386Z,59.1
2018-04-25T11:40:37.016Z,58.7
2018-04-25T11:41:38.652Z,57.0
2018-04-25T11:42:40.282Z,56.5
2018-04-25T11:43:41.917Z,56.2
2018-04-25T11:44:43.548Z,53.7
2018-04-25T11:45:45.189Z,55.3
2018-04-25T11:46:46.826Z,53.2
2018-04-25T11:47:48.463Z,53.9
2018-04-25T11:48:50.096Z,54.0
2018-04-25T11:49:51.736Z,55.6
2018-04-25T11:50:53.364Z,55.9
2018-04-25T11:51:54.994Z,55.6
2018-04-25T11:52:56.627Z,57.8
2018-04-25T11:53:58.257Z,56.6
2018-04-25T11:54:59.900Z,56.9
2018-04-25T11:56:01.530Z,55.4
2018-04-25T11:57:03.159Z,54.7
2018-04-25T11:58:04.790Z,53.9
2018-04-25T11:59:06.428Z,53.4
2018-04-25T12:00:08.063Z,53.6
2018-04-25T12:01:09.690Z,54.2
2018-04-25T12:02:11.327Z,55.9
2018-04-25T12:03:12.960Z,56.5
2018-04-25T12:04:14.592Z,56.1
2018-04-25T12:05:16.220Z,56.8
2018-04-25T12:06:17.844Z,57.1
2018-04-25T12:07:19.479Z,58.3
2018-04-25T12:08:21.101Z,58.3
2018-04-25T12:09:22.730Z,58.6
2018-04-25T12:10:24.363Z,59.6
2018-04-25T12:11:25.990Z,59.9
2018-04-25T12:12:27.620Z,60.7
2018-04-25T12:13:29.243Z,61.9
2018-04-25T12:14:30.869Z,62.3
2018-04-25T12:15:32.496Z,63.3
2018-04-25T12:16:34.118Z,64.5
2018-04-25T12:17:35.750Z,64.2
2018-04-25T12:18:37.464Z,64.3
2018-04-25T12:19:39.009Z,63.8
2018-04-25T12:20:40.662Z,63.0
2018-04-25T12:21:42.262Z,63.2
2018-04-25T12:22:43.893Z,63.3
2018-04-25T12:23:45.520Z,62.4
2018-04-25T12:24:47.154Z,61.8
2018-04-25T12:25:48.781Z,60.8
2018-04-25T12:26:50.409Z,60.0
2018-04-25T12:27:52.034Z,58.3
2018-04-25T12:28:53.665Z,57.8
2018-04-25T12:29:55.294Z,57.1
2018-04-25T12:30:56.926Z,55.6
2018-04-25T12:31:58.560Z,56.2
2018-04-25T12:33:00.187Z,53.3
2018-04-25T12:34:01.828Z,52.7
2018-04-25T12:35:03.452Z,52.0
2018-04-25T12:36:05.083Z,51.3
2018-04-25T12:37:06.719Z,49.9
2018-04-25T12:38:08.354Z,51.0
2018-04-25T12:39:09.986Z,49.6
2018-04-25T12:40:11.621Z,49.6
2018-04-25T12:41:13.258Z,49.0
2018-04-25T12:42:14.890Z,48.7
2018-04-25T12:43:16.525Z,49.9
2018-04-25T12:44:18.154Z,49.9
2018-04-25T12:45:19.791Z,49.8
2018-04-25T12:46:21.423Z,51.7
2018-04-25T12:47:23.053Z,52.6
2018-04-25T12:48:24.680Z,53.6
2018-04-25T12:49:26.316Z,55.3
2018-04-25T12:50:27.945Z,56.0
2018-04-25T12:51:29.580Z,56.2
2018-04-25T12:52:31.215Z,57.0
2018-04-25T12:53:32.843Z,58.0
2018-04-25T12:54:34.469Z,58.5
2018-04-25T12:55:36.097Z,59.7
2018-04-25T12:56:37.731Z,58.9
2018-04-25T12:57:39.358Z,58.1
2018-04-25T12:58:40.984Z,57.7
2018-04-25T12:59:42.612Z,58.1
2018-04-25T13:00:44.246Z,57.5
2018-04-25T13:01:45.918Z,57.5
2018-04-25T13:02:47.504Z,56.8
2018-04-25T13:03:49.131Z,55.5
2018-04-25T13:04:50.764Z,55.5
2018-04-25T13:05:52.396Z,54.3
2018-04-25T13:06:54.028Z,54.4
2018-04-25T13:07:55.654Z,54.9
2018-04-25T13:08:57.304Z,54.9
2018-04-25T13:09:58.910Z,55.4
2018-04-25T13:11:00.541Z,54.6
2018-04-25T13:12:02.174Z,53.7
2018-04-25T13:13:03.801Z,53.2
2018-04-25T13:14:05.436Z,53.7
2018-04-25T13:15:07.160Z,54.6
2018-04-25T13:16:08.693Z,56.3
2018-04-25T13:17:10.328Z,57.2
2018-04-25T13:18:11.960Z,58.1
2018-04-25T13:19:13.585Z,58.8
2018-04-25T13:20:15.221Z,59.1
2018-04-25T13:21:16.854Z,59.4
2018-04-25T13:22:18.474Z,58.7
2018-04-25T13:23:20.107Z,59.0
2018-04-25T13:24:21.731Z,60.5
2018-04-25T13:25:23.357Z,61.5
2018-04-25T13:26:24.984Z,61.5
2018-04-25T13:27:26.608Z,61.4
2018-04-25T13:28:28.239Z,59.0
2018-04-25T13:29:29.867Z,58.4
2018-04-25T13:30:31.497Z,57.5
2018-04-25T13:31:33.123Z,56.1
2018-04-25T13:32:34.751Z,55.2
2018-04-25T13:33:36.377Z,54.7
2018-04-25T13:34:38.010Z,55.5